South Loup, Nebraska
Current Conditions -  °F | °C
As of 9:53 AM on Wednesday 22 Oct 2014 (Local Time) from KGRI Reporting Station
Clear Clear  
Wind Chill: 62°   Ceiling: Unl
Heat Index: 62°   Visibility: 10mi
Dew Point: 54°   Wind: 16mph
Humidity: 75%   Direction: 170°S
Pressure: 30.01"   Gusts: NA
Location:  41.0079°N, 98.6613°W
Report Text: KGRI 221453Z 17014KT 10SM CLR 17/12 A3001 RMK AO2 SLP156 T01670122 53004
Loading
Personal Weather Stations






























Interactive Weather Map
Tropical Storm Tracking
New forecast layout! Learn more

10-Day Weather Forecast

Advertisements
Track Severe Weather on mobile